Time;durP1;ratioP1;P1;durP2;ratioP2;P2;SDS_P1;SDS_P2;PMS_P1;PMS_P2;Temp;Humidity;BMP_temperature;BMP_pressure;BME280_temperature;BME280_humidity;BME280_pressure;Samples;Min_cycle;Max_cycle;Signal;HPM_P1;HPM_P2
2021/05/03 00:01:48;;;;;;;4.68;1.20;;;15.30;99.90;;;;;;4241157;27;20916;-65
2021/05/03 00:03:49;;;;;;;3.38;1.23;;;15.40;99.90;;;;;;4241878;27;20467;-63
2021/05/03 00:05:56;;;;;;;3.80;1.30;;;15.40;99.90;;;;;;4240580;27;20011;-64
2021/05/03 00:07:57;;;;;;;9.15;0.82;;;15.40;99.90;;;;;;4242440;27;20031;-63
2021/05/03 00:09:58;;;;;;;4.40;1.20;;;15.40;99.90;;;;;;4239588;27;20080;-63
2021/05/03 00:12:00;;;;;;;3.05;1.35;;;15.30;99.90;;;;;;4241606;27;20039;-63
2021/05/03 00:14:01;;;;;;;4.25;1.08;;;15.30;99.90;;;;;;4240681;27;20535;-62
2021/05/03 00:16:03;;;;;;;3.40;1.13;;;15.30;99.90;;;;;;4241698;27;20031;-63
2021/05/03 00:18:04;;;;;;;6.03;0.82;;;15.30;99.90;;;;;;4239707;27;20062;-63
2021/05/03 00:20:07;;;;;;;3.42;0.82;;;15.20;99.90;;;;;;4241912;27;20023;-63
2021/05/03 00:22:08;;;;;;;3.30;1.30;;;15.20;99.90;;;;;;4240619;27;20553;-63
2021/05/03 00:24:10;;;;;;;4.95;1.88;;;15.10;99.90;;;;;;4241052;27;20073;-63
2021/05/03 00:26:11;;;;;;;5.25;1.65;;;15.10;99.90;;;;;;4240244;27;20444;-63
2021/05/03 00:28:13;;;;;;;2.08;1.00;;;15.00;99.90;;;;;;4240622;27;20023;-63
2021/05/03 00:30:15;;;;;;;3.33;1.20;;;15.00;99.90;;;;;;4241160;27;20103;-62
2021/05/03 00:32:16;;;;;;;1.83;1.00;;;14.90;99.90;;;;;;4240153;27;20360;-62
2021/05/03 00:34:17;;;;;;;2.75;1.10;;;14.90;99.90;;;;;;4240977;27;20023;-62
2021/05/03 00:36:19;;;;;;;3.63;1.35;;;14.80;99.90;;;;;;4240066;27;20060;-62
2021/05/03 00:38:20;;;;;;;4.65;2.28;;;14.70;99.90;;;;;;4241708;27;20031;-63
2021/05/03 00:40:21;;;;;;;7.77;2.10;;;14.40;99.90;;;;;;4239820;27;20060;-62
2021/05/03 00:42:22;;;;;;;3.73;2.03;;;14.20;99.90;;;;;;4240858;27;20027;-63
2021/05/03 00:44:26;;;;;;;4.40;1.63;;;14.00;99.90;;;;;;4240107;27;20071;-64
2021/05/03 00:46:28;;;;;;;4.13;2.20;;;13.80;99.90;;;;;;4240924;27;20881;-63
2021/05/03 00:48:29;;;;;;;1.60;1.50;;;13.60;99.90;;;;;;4240100;27;20108;-62
2021/05/03 00:50:31;;;;;;;1.63;1.30;;;13.50;99.90;;;;;;4241022;27;20056;-62
2021/05/03 00:52:32;;;;;;;6.97;1.60;;;13.30;99.90;;;;;;4240016;27;20035;-63
2021/05/03 00:54:33;;;;;;;3.90;1.63;;;13.20;99.90;;;;;;4240745;27;20711;-62
2021/05/03 00:56:35;;;;;;;3.23;1.70;;;13.00;99.90;;;;;;4240152;27;20069;-61
2021/05/03 00:58:36;;;;;;;3.83;1.10;;;12.90;99.90;;;;;;4240691;27;20023;-64
2021/05/03 01:00:37;;;;;;;4.43;0.83;;;12.90;99.90;;;;;;4240462;27;20031;-65
2021/05/03 01:02:39;;;;;;;0.57;0.40;;;12.60;99.90;;;;;;4240299;27;20151;-62
2021/05/03 01:04:41;;;;;;;5.10;0.47;;;12.60;99.90;;;;;;4240684;27;20035;-62
2021/05/03 01:06:42;;;;;;;3.80;0.87;;;12.50;99.90;;;;;;4239765;27;20437;-67
2021/05/03 01:08:43;;;;;;;1.87;1.50;;;12.50;99.90;;;;;;4240695;27;20076;-62
2021/05/03 01:10:44;;;;;;;2.97;1.70;;;12.40;99.90;;;;;;4239128;27;20051;-62
2021/05/03 01:12:45;;;;;;;2.33;0.90;;;12.30;99.90;;;;;;4240481;27;20035;-64
2021/05/03 01:14:47;;;;;;;3.93;1.90;;;12.30;99.90;;;;;;4239713;27;20031;-63
2021/05/03 01:16:48;;;;;;;1.83;1.07;;;12.20;99.90;;;;;;4241177;27;20040;-62
2021/05/03 01:18:49;;;;;;;5.47;1.67;;;12.20;99.90;;;;;;4239757;27;20031;-62
2021/05/03 01:20:54;;;;;;;2.93;1.50;;;12.20;99.90;;;;;;4240252;27;20092;-60
2021/05/03 01:22:58;;;;;;;2.43;1.90;;;12.10;99.90;;;;;;4239326;27;20038;-67
2021/05/03 01:24:59;;;;;;;3.53;1.10;;;12.10;99.90;;;;;;4240454;27;20088;-65
2021/05/03 01:27:00;;;;;;;4.57;1.70;;;12.00;99.90;;;;;;4239933;27;20080;-63
2021/05/03 01:29:01;;;;;;;4.70;2.07;;;11.90;99.90;;;;;;4240117;27;20084;-63
2021/05/03 01:31:02;;;;;;;1.70;1.60;;;11.90;99.90;;;;;;4239618;27;20027;-63
2021/05/03 01:33:06;;;;;;;3.00;1.43;;;11.80;99.90;;;;;;4239555;27;20080;-62
2021/05/03 01:35:08;;;;;;;2.77;1.90;;;11.70;99.90;;;;;;4239965;27;20031;-63
2021/05/03 01:37:13;;;;;;;4.70;1.70;;;11.70;99.90;;;;;;4239525;27;20023;-62
2021/05/03 01:39:18;;;;;;;1.63;1.17;;;11.60;99.90;;;;;;4240436;27;20088;-62
2021/05/03 01:41:19;;;;;;;3.37;1.50;;;11.50;99.90;;;;;;4239921;27;20043;-63
2021/05/03 01:43:25;;;;;;;2.87;1.47;;;11.40;99.90;;;;;;4240783;27;20087;-63
2021/05/03 01:45:26;;;;;;;2.23;1.10;;;11.30;99.90;;;;;;4238950;27;20091;-63
2021/05/03 01:47:28;;;;;;;2.40;0.80;;;11.30;99.90;;;;;;4240622;27;20043;-63
2021/05/03 01:49:29;;;;;;;2.30;1.30;;;11.20;99.90;;;;;;4238771;27;20043;-60
2021/05/03 01:51:31;;;;;;;4.70;2.20;;;11.10;99.90;;;;;;4240083;27;20538;-63
2021/05/03 01:53:32;;;;;;;4.70;1.30;;;11.10;99.90;;;;;;4238593;27;20100;-63
2021/05/03 01:55:35;;;;;;;3.37;1.20;;;11.00;99.90;;;;;;4239763;27;20055;-63
2021/05/03 01:57:36;;;;;;;2.27;1.57;;;11.00;99.90;;;;;;4239449;27;20043;-63
2021/05/03 01:59:39;;;;;;;2.83;1.70;;;11.00;99.90;;;;;;4240132;27;20032;-62
2021/05/03 02:01:40;;;;;;;3.23;1.50;;;10.90;99.90;;;;;;4238928;27;20483;-61
2021/05/03 02:03:41;;;;;;;3.40;0.63;;;10.80;99.90;;;;;;4239604;27;20035;-62
2021/05/03 02:05:43;;;;;;;1.17;1.00;;;10.80;99.90;;;;;;4239238;28;20073;-63
2021/05/03 02:07:44;;;;;;;8.47;1.00;;;10.70;99.90;;;;;;4238852;28;20072;-64
2021/05/03 02:09:46;;;;;;;1.43;0.67;;;10.70;99.90;;;;;;4240167;27;20039;-63
2021/05/03 02:11:47;;;;;;;1.27;1.10;;;10.70;99.90;;;;;;4239084;27;20528;-62
2021/05/03 02:13:48;;;;;;;0.83;0.47;;;10.60;99.90;;;;;;4239103;27;20088;-63
2021/05/03 02:15:50;;;;;;;1.77;1.00;;;10.60;99.90;;;;;;4239510;27;20043;-64
2021/05/03 02:17:51;;;;;;;4.80;0.60;;;10.50;99.90;;;;;;4240385;27;20104;-62
2021/05/03 02:19:52;;;;;;;2.10;0.50;;;10.50;99.90;;;;;;4238987;27;20031;-62
2021/05/03 02:21:53;;;;;;;7.13;1.50;;;10.40;99.90;;;;;;4240692;27;20051;-63
2021/05/03 02:23:55;;;;;;;2.33;0.60;;;10.40;99.90;;;;;;4238407;27;20463;-62
2021/05/03 02:25:56;;;;;;;2.10;0.83;;;10.30;99.90;;;;;;4239860;27;20091;-63
2021/05/03 02:28:00;;;;;;;4.57;0.60;;;10.30;99.90;;;;;;4238830;27;20035;-62
2021/05/03 02:30:01;;;;;;;1.67;0.60;;;10.30;99.90;;;;;;4239963;28;20108;-62
2021/05/03 02:32:02;;;;;;;2.33;0.40;;;10.20;99.90;;;;;;4239002;27;20039;-62
2021/05/03 02:34:04;;;;;;;1.77;0.80;;;10.10;99.90;;;;;;4243267;27;20467;-64
2021/05/03 02:36:05;;;;;;;1.03;0.60;;;10.00;99.90;;;;;;4241998;27;20023;-62
2021/05/03 02:38:08;;;;;;;2.43;0.60;;;9.90;99.90;;;;;;4242545;27;20487;-62
2021/05/03 02:40:10;;;;;;;1.40;0.83;;;9.90;99.90;;;;;;4242489;27;20715;-63
2021/05/03 02:42:14;;;;;;;1.00;0.80;;;9.80;99.90;;;;;;4242089;27;20027;-61
2021/05/03 02:44:15;;;;;;;1.80;0.70;;;9.70;99.90;;;;;;4242748;27;20047;-62
2021/05/03 02:46:16;;;;;;;4.80;0.80;;;9.70;99.90;;;;;;4241751;27;20068;-62
2021/05/03 02:48:17;;;;;;;1.97;1.03;;;9.60;99.90;;;;;;4243484;27;20084;-61
2021/05/03 02:50:22;;;;;;;5.50;1.13;;;9.60;99.90;;;;;;4241208;27;20031;-62
2021/05/03 02:52:23;;;;;;;2.17;0.90;;;9.50;99.90;;;;;;4242859;27;20084;-62
2021/05/03 02:54:24;;;;;;;2.33;1.27;;;9.50;99.90;;;;;;4241582;27;20039;-62
2021/05/03 02:56:26;;;;;;;6.30;1.20;;;9.40;99.90;;;;;;4242773;27;20034;-61
2021/05/03 02:58:27;;;;;;;1.57;0.90;;;9.40;99.90;;;;;;4241527;27;20096;-63
2021/05/03 03:00:34;;;;;;;1.60;1.03;;;9.30;99.90;;;;;;4241142;27;20044;-62
2021/05/03 03:02:35;;;;;;;2.10;1.20;;;9.30;99.90;;;;;;4241950;27;20051;-63
2021/05/03 03:04:37;;;;;;;0.90;0.80;;;9.30;99.90;;;;;;4242715;27;20151;-62
2021/05/03 03:06:38;;;;;;;1.87;1.13;;;9.30;99.90;;;;;;4241265;27;20376;-65
2021/05/03 03:08:39;;;;;;;3.00;1.30;;;9.30;99.90;;;;;;4242760;27;20080;-62
2021/05/03 03:10:40;;;;;;;2.50;1.30;;;9.20;99.90;;;;;;4241593;27;20548;-62
2021/05/03 03:12:41;;;;;;;2.70;1.23;;;9.30;99.90;;;;;;4242198;27;20047;-63
2021/05/03 03:14:42;;;;;;;1.80;1.10;;;9.30;99.90;;;;;;4242133;27;20096;-63
2021/05/03 03:16:44;;;;;;;1.37;1.10;;;9.20;99.90;;;;;;4241596;27;20072;-64
2021/05/03 03:18:45;;;;;;;3.13;1.37;;;9.30;99.90;;;;;;4242107;27;20027;-62
2021/05/03 03:20:47;;;;;;;1.43;1.23;;;9.30;99.90;;;;;;4241715;27;20107;-63
2021/05/03 03:22:48;;;;;;;3.47;1.10;;;9.30;99.90;;;;;;4242223;27;20741;-62
2021/05/03 03:24:49;;;;;;;1.17;1.00;;;9.20;99.90;;;;;;4240980;27;20080;-62
2021/05/03 03:26:50;;;;;;;3.13;1.10;;;9.20;99.90;;;;;;4241133;27;20483;-63
2021/05/03 03:28:52;;;;;;;1.60;1.40;;;9.20;99.90;;;;;;4240844;27;20634;-65
2021/05/03 03:30:53;;;;;;;3.33;2.17;;;9.40;99.90;;;;;;4241966;27;20449;-62
2021/05/03 03:32:54;;;;;;;1.67;1.27;;;9.70;99.90;;;;;;4240984;27;20031;-62
2021/05/03 03:34:55;;;;;;;1.40;1.30;;;10.00;99.90;;;;;;4242489;27;20813;-63
2021/05/03 03:36:56;;;;;;;1.30;1.20;;;10.20;99.90;;;;;;4241086;27;20027;-63
2021/05/03 03:38:59;;;;;;;2.10;1.30;;;10.60;99.90;;;;;;4240606;27;20517;-62
2021/05/03 03:41:01;;;;;;;1.63;1.40;;;10.80;99.90;;;;;;4241217;27;20080;-63
2021/05/03 03:43:02;;;;;;;1.70;1.60;;;11.00;99.90;;;;;;4241464;27;20424;-63
2021/05/03 03:45:05;;;;;;;2.20;1.13;;;11.30;99.90;;;;;;4240632;27;20103;-63
2021/05/03 03:47:06;;;;;;;1.37;1.27;;;11.50;99.90;;;;;;4241443;27;20035;-62
2021/05/03 03:49:08;;;;;;;2.23;1.40;;;11.70;99.90;;;;;;4242159;27;20031;-63
2021/05/03 03:51:09;;;;;;;1.93;1.73;;;12.00;99.90;;;;;;4240217;27;20047;-64
2021/05/03 03:53:10;;;;;;;3.37;1.80;;;12.20;99.90;;;;;;4241494;27;20562;-62
2021/05/03 03:55:12;;;;;;;2.17;1.97;;;12.50;99.90;;;;;;4240542;27;20035;-62
2021/05/03 03:57:13;;;;;;;1.87;1.77;;;12.90;99.90;;;;;;4241570;27;20432;-63
2021/05/03 03:59:15;;;;;;;2.73;2.07;;;13.20;99.90;;;;;;4240062;27;20035;-63
2021/05/03 04:01:16;;;;;;;4.27;1.80;;;13.30;99.90;;;;;;4240633;27;20027;-62
2021/05/03 04:03:20;;;;;;;2.93;1.30;;;13.80;99.90;;;;;;4240327;27;20102;-63
2021/05/03 04:08:29;;;;;;;5.82;1.23;;;14.30;99.90;;;;;;4240188;27;20031;-62
2021/05/03 04:26:14;;;;;;;2.03;1.37;;;15.80;97.60;;;;;;4240720;27;20062;-65
2021/05/03 04:28:15;;;;;;;2.57;1.20;;;16.30;96.70;;;;;;4240991;27;20275;-62
2021/05/03 04:30:17;;;;;;;4.13;1.20;;;16.70;95.20;;;;;;4239441;27;20051;-62
2021/05/03 04:32:18;;;;;;;4.13;1.47;;;16.90;93.60;;;;;;4241122;27;20707;-62
2021/05/03 04:34:19;;;;;;;1.17;1.10;;;16.90;93.10;;;;;;4239891;27;20027;-61
2021/05/03 04:36:20;;;;;;;1.20;1.10;;;16.60;92.40;;;;;;4241058;27;20043;-62
2021/05/03 04:38:22;;;;;;;2.85;1.58;;;16.70;92.30;;;;;;4240334;27;20035;-62
2021/05/03 04:40:23;;;;;;;4.82;1.50;;;17.30;91.80;;;;;;4240657;27;20099;-61
2021/05/03 04:42:24;;;;;;;1.25;1.02;;;17.20;90.90;;;;;;4239936;27;20027;-62
2021/05/03 04:44:25;;;;;;;3.13;1.17;;;17.30;90.20;;;;;;4240001;27;20080;-61
2021/05/03 04:46:26;;;;;;;2.78;1.30;;;17.30;89.50;;;;;;4239616;27;20095;-63
2021/05/03 04:48:27;;;;;;;1.08;0.98;;;17.10;87.50;;;;;;4240569;27;20892;-63
2021/05/03 04:50:29;;;;;;;1.83;1.13;;;16.90;88.00;;;;;;4240002;27;20043;-62
2021/05/03 04:52:30;;;;;;;1.23;0.95;;;16.80;87.80;;;;;;4240932;27;20031;-64
2021/05/03 04:54:31;;;;;;;1.30;1.20;;;16.70;88.10;;;;;;4239949;27;20123;-63
2021/05/03 04:56:32;;;;;;;2.05;1.77;;;16.50;88.70;;;;;;4238887;27;20035;-63
2021/05/03 04:58:33;;;;;;;3.28;1.88;;;16.40;88.90;;;;;;4240825;27;20091;-65
2021/05/03 05:00:34;;;;;;;3.78;1.83;;;16.60;88.50;;;;;;4239437;27;20072;-65
2021/05/03 05:02:35;;;;;;;2.40;1.30;;;16.50;87.80;;;;;;4239165;27;20036;-63
2021/05/03 05:04:37;;;;;;;1.30;1.20;;;16.70;87.50;;;;;;4239540;27;20027;-64
2021/05/03 05:06:38;;;;;;;1.75;1.40;;;16.70;86.80;;;;;;4240377;27;20035;-65
2021/05/03 05:08:40;;;;;;;1.25;1.15;;;16.70;86.80;;;;;;4239134;27;20064;-62
2021/05/03 05:10:41;;;;;;;1.60;1.08;;;16.90;86.20;;;;;;4240573;27;20594;-65
2021/05/03 05:12:42;;;;;;;2.13;1.27;;;17.00;86.00;;;;;;4239023;27;20096;-62
2021/05/03 05:14:43;;;;;;;1.35;1.10;;;17.50;85.40;;;;;;4240171;27;20479;-62
2021/05/03 05:16:46;;;;;;;3.42;1.52;;;18.20;82.60;;;;;;4239123;27;20932;-59
2021/05/03 05:18:48;;;;;;;2.50;1.42;;;18.80;80.60;;;;;;4240435;27;20026;-59
2021/05/03 05:20:49;;;;;;;1.67;1.17;;;18.90;78.80;;;;;;4239191;27;20583;-61
2021/05/03 05:22:50;;;;;;;2.72;1.85;;;18.90;77.20;;;;;;4239847;27;20444;-63
2021/05/03 05:24:52;;;;;;;1.77;1.40;;;18.70;75.30;;;;;;4239352;27;20043;-61
2021/05/03 05:26:53;;;;;;;1.42;1.30;;;18.20;77.40;;;;;;4238910;27;20136;-66
2021/05/03 05:28:54;;;;;;;1.27;1.17;;;18.20;77.40;;;;;;4239726;27;20060;-60
2021/05/03 05:30:55;;;;;;;5.40;1.60;;;18.40;77.60;;;;;;4239111;27;20039;-63
2021/05/03 05:32:56;;;;;;;3.55;1.45;;;18.30;77.20;;;;;;4239883;27;20031;-60
2021/05/03 05:34:57;;;;;;;1.92;1.50;;;18.10;76.70;;;;;;4239192;27;20035;-61
2021/05/03 05:36:58;;;;;;;1.63;1.52;;;17.90;76.80;;;;;;4240306;27;20096;-65
2021/05/03 05:39:00;;;;;;;3.08;1.67;;;17.90;76.80;;;;;;4238868;27;20039;-60
2021/05/03 05:41:02;;;;;;;3.83;1.25;;;17.60;77.00;;;;;;4239793;27;21266;-64
2021/05/03 05:43:06;;;;;;;1.95;1.73;;;16.80;77.90;;;;;;4238858;27;20036;-64
2021/05/03 05:45:08;;;;;;;1.95;1.77;;;16.50;79.20;;;;;;4240214;27;20035;-65
2021/05/03 05:47:09;;;;;;;1.80;1.70;;;16.40;80.20;;;;;;4238491;27;20035;-62
2021/05/03 05:49:11;;;;;;;3.35;2.30;;;16.70;80.80;;;;;;4240106;27;20071;-63
2021/05/03 05:51:12;;;;;;;3.13;2.80;;;16.60;80.10;;;;;;4238887;27;20443;-65
2021/05/03 05:53:14;;;;;;;2.33;2.13;;;16.50;80.70;;;;;;4239414;27;20039;-65
2021/05/03 05:55:15;;;;;;;1.98;1.33;;;16.50;80.90;;;;;;4238832;27;20167;-62
2021/05/03 05:57:16;;;;;;;1.35;0.93;;;16.20;81.40;;;;;;4237828;27;20043;-65
2021/05/03 05:59:18;;;;;;;4.45;1.38;;;15.80;82.60;;;;;;4238444;27;20096;-63
2021/05/03 06:01:19;;;;;;;2.60;1.43;;;15.40;83.90;;;;;;4239187;27;20027;-65
2021/05/03 06:03:20;;;;;;;2.70;1.25;;;15.30;84.80;;;;;;4239199;28;20050;-65
2021/05/03 06:05:23;;;;;;;1.87;1.53;;;15.10;86.00;;;;;;4238958;28;20103;-62
2021/05/03 06:07:24;;;;;;;2.50;1.40;;;14.90;87.30;;;;;;4238520;27;20015;-64
2021/05/03 06:09:25;;;;;;;2.10;1.20;;;14.80;88.50;;;;;;4238697;27;20039;-61
2021/05/03 06:11:26;;;;;;;2.33;1.27;;;14.60;89.60;;;;;;4239643;27;20092;-61
2021/05/03 06:13:28;;;;;;;1.37;1.10;;;14.30;90.20;;;;;;4237911;28;20023;-64
2021/05/03 06:15:29;;;;;;;4.33;1.47;;;14.10;90.70;;;;;;4239416;28;20031;-62
2021/05/03 06:17:30;;;;;;;2.90;1.60;;;14.10;91.20;;;;;;4238570;28;20417;-62
2021/05/03 06:19:31;;;;;;;1.10;1.00;;;14.10;91.90;;;;;;4239452;27;20039;-62
2021/05/03 06:21:33;;;;;;;6.83;1.10;;;14.20;92.40;;;;;;4238341;27;20484;-65
2021/05/03 06:23:34;;;;;;;3.77;1.83;;;14.00;92.70;;;;;;4237973;27;20590;-67
2021/05/03 06:25:35;;;;;;;1.10;1.00;;;13.80;93.10;;;;;;4239017;27;20046;-62
2021/05/03 06:27:36;;;;;;;1.30;1.00;;;13.70;93.60;;;;;;4239310;27;20047;-63
2021/05/03 06:29:38;;;;;;;1.70;1.27;;;13.70;93.80;;;;;;4238847;27;20088;-62
2021/05/03 06:31:40;;;;;;;1.30;1.03;;;13.80;93.90;;;;;;4238940;27;20092;-64
2021/05/03 06:33:42;;;;;;;4.20;1.10;;;13.80;93.50;;;;;;4239132;27;20027;-61
2021/05/03 06:35:43;;;;;;;2.60;1.00;;;13.80;93.70;;;;;;4239120;27;20039;-67
2021/05/03 06:37:44;;;;;;;1.23;0.97;;;13.70;93.60;;;;;;4238818;27;20630;-68
2021/05/03 06:39:46;;;;;;;2.63;0.73;;;13.70;94.00;;;;;;4238059;27;20496;-61
2021/05/03 06:41:48;;;;;;;1.60;1.10;;;14.10;93.60;;;;;;4239215;27;20039;-64
2021/05/03 06:43:49;;;;;;;1.73;0.97;;;14.40;93.10;;;;;;4238477;27;20061;-65
2021/05/03 06:45:50;;;;;;;2.10;0.90;;;14.70;92.30;;;;;;4239055;27;20094;-63
2021/05/03 06:47:51;;;;;;;1.90;1.10;;;14.90;91.50;;;;;;4238404;27;20031;-65
2021/05/03 06:49:53;;;;;;;1.47;0.90;;;15.10;91.00;;;;;;4239587;27;20115;-61
2021/05/03 06:51:54;;;;;;;2.97;0.97;;;15.30;90.90;;;;;;4238627;27;20039;-62
2021/05/03 06:53:55;;;;;;;0.93;0.90;;;15.30;90.30;;;;;;4239537;28;20063;-62
2021/05/03 06:55:56;;;;;;;2.30;0.90;;;15.60;90.10;;;;;;4238286;27;20072;-61
2021/05/03 06:57:58;;;;;;;1.53;0.80;;;15.80;89.30;;;;;;4238770;27;20471;-63
2021/05/03 07:00:00;;;;;;;0.87;0.83;;;16.00;87.90;;;;;;4238106;27;20487;-62
2021/05/03 07:02:02;;;;;;;5.90;1.50;;;16.10;86.20;;;;;;4239130;27;20562;-61
2021/05/03 07:04:03;;;;;;;0.77;0.70;;;16.00;85.10;;;;;;4238940;28;20076;-62
2021/05/03 07:06:04;;;;;;;1.40;0.70;;;15.80;85.00;;;;;;4237926;27;20479;-63
2021/05/03 07:08:07;;;;;;;0.70;0.70;;;15.60;85.50;;;;;;4238987;27;20095;-70
2021/05/03 07:10:09;;;;;;;1.53;1.10;;;15.50;86.40;;;;;;4237488;27;20031;-62
2021/05/03 07:12:11;;;;;;;0.93;0.60;;;15.60;87.10;;;;;;4238458;27;20373;-61
2021/05/03 07:14:12;;;;;;;2.70;0.80;;;15.80;86.60;;;;;;4238208;27;20123;-64
2021/05/03 07:16:13;;;;;;;0.85;0.85;;;16.00;86.20;;;;;;4239232;27;20854;-69
2021/05/03 07:18:14;;;;;;;2.50;0.77;;;16.60;84.00;;;;;;4238362;27;20047;-69
2021/05/03 07:20:17;;;;;;;2.05;1.00;;;16.70;81.80;;;;;;4240083;27;20043;-70
2021/05/03 07:22:18;;;;;;;1.63;0.90;;;16.40;79.90;;;;;;4240669;27;20042;-62
2021/05/03 07:24:19;;;;;;;3.40;0.88;;;16.40;79.70;;;;;;4241393;27;20092;-69
2021/05/03 07:26:20;;;;;;;0.80;0.80;;;16.50;79.30;;;;;;4240734;27;20035;-61
2021/05/03 07:28:21;;;;;;;1.38;1.23;;;16.50;78.60;;;;;;4240627;27;20088;-61
2021/05/03 07:30:23;;;;;;;0.95;0.90;;;16.70;78.60;;;;;;4240574;27;20039;-65
2021/05/03 07:32:24;;;;;;;1.30;1.20;;;17.10;77.50;;;;;;4241319;27;20039;-68
2021/05/03 07:34:25;;;;;;;1.13;1.05;;;17.20;76.00;;;;;;4240427;27;20092;-63
2021/05/03 07:36:26;;;;;;;1.88;0.90;;;17.00;75.20;;;;;;4241105;27;20031;-70
2021/05/03 07:38:27;;;;;;;2.10;1.27;;;16.90;74.30;;;;;;4240966;27;20620;-62
2021/05/03 07:40:28;;;;;;;1.25;0.98;;;16.60;73.60;;;;;;4240779;27;20829;-65
2021/05/03 07:42:30;;;;;;;1.27;1.02;;;16.30;74.00;;;;;;4241526;27;20487;-68
2021/05/03 07:44:31;;;;;;;1.35;0.82;;;16.00;75.00;;;;;;4240532;27;20042;-66
2021/05/03 07:46:32;;;;;;;1.67;1.30;;;15.90;75.40;;;;;;4241385;27;20027;-69
2021/05/03 07:48:33;;;;;;;1.30;0.90;;;15.60;76.10;;;;;;4238960;27;20039;-62
2021/05/03 07:50:36;;;;;;;1.48;1.13;;;15.30;76.90;;;;;;4240738;27;20035;-63
2021/05/03 07:52:38;;;;;;;1.73;0.93;;;15.30;77.70;;;;;;4239760;27;20104;-68
2021/05/03 07:54:39;;;;;;;1.17;0.90;;;15.50;77.70;;;;;;4240679;27;20390;-68
2021/05/03 07:56:40;;;;;;;1.70;1.00;;;15.80;78.00;;;;;;4239340;27;20433;-69
2021/05/03 07:58:46;;;;;;;2.97;1.05;;;16.10;77.10;;;;;;4240955;27;20088;-69
2021/05/03 08:00:49;;;;;;;0.93;0.90;;;16.30;75.90;;;;;;4239379;27;20031;-62
2021/05/03 08:02:51;;;;;;;0.73;0.73;;;16.50;75.90;;;;;;4240362;27;20734;-68
2021/05/03 08:04:52;;;;;;;2.20;1.05;;;16.60;75.30;;;;;;4239568;27;20046;-68
2021/05/03 08:06:57;;;;;;;1.85;0.93;;;16.80;75.30;;;;;;4236837;27;20048;-69
2021/05/03 08:09:00;;;;;;;1.15;0.82;;;17.10;74.70;;;;;;4239883;27;20027;-61
2021/05/03 08:11:01;;;;;;;0.65;0.65;;;17.20;73.70;;;;;;4239437;27;20804;-68
2021/05/03 08:13:03;;;;;;;0.80;0.80;;;17.20;73.60;;;;;;4240355;27;20080;-61
2021/05/03 08:15:13;;;;;;;0.95;0.80;;;17.30;72.60;;;;;;4239796;27;20905;-61
2021/05/03 08:17:16;;;;;;;1.88;0.88;;;17.40;71.20;;;;;;4241122;27;20096;-62
2021/05/03 08:19:17;;;;;;;1.42;1.30;;;17.40;71.20;;;;;;4239959;27;20448;-61
2021/05/03 08:21:19;;;;;;;3.22;1.33;;;17.50;71.20;;;;;;4240784;27;20103;-61
2021/05/03 08:23:20;;;;;;;1.75;1.30;;;17.30;71.10;;;;;;4239740;27;20023;-63
2021/05/03 08:25:21;;;;;;;0.77;0.57;;;17.10;71.90;;;;;;4240743;27;20154;-62
2021/05/03 08:27:23;;;;;;;1.80;0.70;;;16.80;72.40;;;;;;4239506;27;20023;-62
2021/05/03 08:29:24;;;;;;;0.88;0.80;;;16.60;72.30;;;;;;4240807;27;20031;-60
2021/05/03 08:31:25;;;;;;;1.90;1.15;;;16.50;71.60;;;;;;4239140;27;20059;-62
2021/05/03 08:33:27;;;;;;;2.00;1.33;;;16.50;71.90;;;;;;4239963;27;20047;-61
2021/05/03 08:35:28;;;;;;;0.70;0.70;;;16.30;71.40;;;;;;4239615;27;20159;-63
2021/05/03 08:37:30;;;;;;;4.57;1.20;;;16.30;71.80;;;;;;4240498;27;20019;-63
2021/05/03 08:39:32;;;;;;;2.88;1.52;;;16.40;71.80;;;;;;4239654;27;20475;-67
2021/05/03 08:41:34;;;;;;;1.05;0.82;;;16.50;71.70;;;;;;4239711;27;20112;-63
2021/05/03 08:43:40;;;;;;;1.23;1.02;;;16.80;71.80;;;;;;4240165;27;20479;-63
2021/05/03 08:45:41;;;;;;;0.68;0.50;;;17.10;71.60;;;;;;4239263;27;20771;-63
2021/05/03 08:47:55;;;;;;;1.73;0.70;;;17.20;70.50;;;;;;4240774;27;20031;-63
2021/05/03 08:50:04;;;;;;;2.17;0.88;;;17.10;69.80;;;;;;4240087;27;20491;-62
2021/05/03 08:56:23;;;;;;;2.67;0.80;;;16.70;70.60;;;;;;4239564;27;20072;-67
2021/05/03 08:58:24;;;;;;;0.80;0.80;;;16.90;70.80;;;;;;4239587;27;20031;-62
2021/05/03 09:00:26;;;;;;;1.17;1.08;;;17.00;70.40;;;;;;4240002;27;20084;-63
2021/05/03 09:02:27;;;;;;;2.28;0.70;;;16.80;69.40;;;;;;4238487;27;20035;-63
2021/05/03 09:04:29;;;;;;;7.68;2.00;;;16.60;67.80;;;;;;4240215;27;20874;-64
2021/05/03 09:06:31;;;;;;;1.00;0.80;;;16.20;68.20;;;;;;4239729;27;20031;-63
2021/05/03 09:08:32;;;;;;;1.52;1.15;;;16.10;69.30;;;;;;4239941;27;20080;-62
2021/05/03 09:10:33;;;;;;;2.78;1.70;;;16.20;68.70;;;;;;4238960;27;20035;-64
2021/05/03 09:12:36;;;;;;;0.60;0.50;;;16.10;68.30;;;;;;4239948;27;20107;-64
2021/05/03 09:15:02;;;;;;;2.05;1.30;;;15.90;67.70;;;;;;4239548;27;20039;-64
2021/05/03 09:17:03;;;;;;;1.58;0.75;;;15.90;68.00;;;;;;4240504;27;20046;-61
2021/05/03 09:19:04;;;;;;;1.13;0.70;;;16.10;69.50;;;;;;4239444;27;20466;-62
2021/05/03 09:21:05;;;;;;;0.85;0.70;;;16.30;67.80;;;;;;4239998;27;20431;-62
2021/05/03 09:25:32;;;;;;;0.65;0.65;;;16.40;68.20;;;;;;4239975;27;20378;-62
2021/05/03 09:27:34;;;;;;;3.58;2.22;;;16.50;67.40;;;;;;4239281;27;20099;-63
2021/05/03 09:29:46;;;;;;;1.33;1.17;;;16.50;67.40;;;;;;4240263;27;20551;-63
2021/05/03 09:32:19;;;;;;;0.88;0.60;;;16.50;66.90;;;;;;4239443;27;20051;-62
2021/05/03 09:34:28;;;;;;;1.20;0.68;;;16.60;65.80;;;;;;4235068;27;20112;-63
2021/05/03 09:36:29;;;;;;;1.00;0.88;;;16.70;66.30;;;;;;4238806;27;20031;-62
2021/05/03 09:38:39;;;;;;;2.15;1.08;;;16.70;66.70;;;;;;4240058;27;20055;-62
2021/05/03 09:40:40;;;;;;;0.57;0.50;;;16.70;67.40;;;;;;4238945;27;20068;-63
2021/05/03 09:42:56;;;;;;;2.65;1.13;;;16.70;66.90;;;;;;4238562;27;20023;-70
2021/05/03 09:45:11;;;;;;;3.15;1.00;;;16.70;66.20;;;;;;4239037;27;20123;-61
2021/05/03 09:47:13;;;;;;;1.17;1.08;;;16.60;65.80;;;;;;4240346;27;20131;-60
2021/05/03 09:49:17;;;;;;;1.65;0.82;;;16.40;66.00;;;;;;4239251;27;20145;-68
2021/05/03 09:51:40;;;;;;;2.50;0.85;;;16.40;66.10;;;;;;4239775;27;20023;-61
2021/05/03 09:54:27;;;;;;;0.40;0.32;;;16.30;63.30;;;;;;4238372;27;20066;-62
2021/05/03 09:56:56;;;;;;;0.95;0.63;;;16.30;64.10;;;;;;4240052;27;20605;-62
2021/05/03 09:58:57;;;;;;;2.63;0.77;;;16.30;64.90;;;;;;4239220;27;20043;-62
2021/05/03 10:00:59;;;;;;;0.90;0.73;;;16.20;66.20;;;;;;4240116;27;20035;-60
2021/05/03 10:03:00;;;;;;;3.90;0.70;;;16.20;65.20;;;;;;4238495;27;20023;-60
2021/05/03 10:05:13;;;;;;;1.10;0.95;;;16.10;65.10;;;;;;4239935;27;20024;-60
2021/05/03 10:07:17;;;;;;;1.17;0.90;;;16.00;65.90;;;;;;4239288;27;20047;-59
2021/05/03 10:09:18;;;;;;;1.77;1.00;;;16.00;67.10;;;;;;4239997;27;20047;-61
2021/05/03 10:11:24;;;;;;;1.55;1.45;;;16.00;67.10;;;;;;4237332;28;20035;-59
2021/05/03 10:13:26;;;;;;;2.03;1.00;;;16.10;68.10;;;;;;4239016;28;20027;-58
2021/05/03 10:15:27;;;;;;;0.55;0.50;;;16.00;67.80;;;;;;4236361;27;20043;-59
2021/05/03 10:17:30;;;;;;;3.33;1.42;;;16.00;68.20;;;;;;4239322;28;20035;-60
2021/05/03 10:19:33;;;;;;;3.38;1.75;;;15.90;68.90;;;;;;4238892;28;20075;-62
2021/05/03 10:21:34;;;;;;;2.22;1.67;;;15.90;68.70;;;;;;4221544;28;20818;-60
2021/05/03 10:23:41;;;;;;;4.30;1.45;;;15.70;69.60;;;;;;4221684;28;20028;-56
2021/05/03 10:25:43;;;;;;;2.38;1.67;;;15.50;70.00;;;;;;4232102;28;20995;-59
2021/05/03 10:27:47;;;;;;;2.67;1.77;;;15.50;69.90;;;;;;4239141;28;20023;-60
2021/05/03 10:30:11;;;;;;;1.55;1.42;;;15.50;70.60;;;;;;4239063;27;20023;-60
2021/05/03 10:32:34;;;;;;;1.25;0.75;;;15.50;70.40;;;;;;4238672;27;20076;-61
2021/05/03 10:34:48;;;;;;;2.92;1.35;;;15.50;70.60;;;;;;4238710;27;20051;-63
2021/05/03 10:36:49;;;;;;;3.85;1.40;;;15.50;70.80;;;;;;4238269;27;20027;-61
2021/05/03 10:38:50;;;;;;;0.73;0.65;;;15.60;71.50;;;;;;4239460;28;20400;-62
2021/05/03 10:40:52;;;;;;;0.77;0.77;;;15.50;70.60;;;;;;4238999;27;20039;-64
2021/05/03 10:43:02;;;;;;;2.17;0.63;;;15.40;70.20;;;;;;4239025;27;20023;-64
2021/05/03 10:47:35;;;;;;;0.70;0.70;;;15.30;69.00;;;;;;4238196;28;20072;-60
2021/05/03 10:49:42;;;;;;;1.35;1.17;;;15.40;69.80;;;;;;4238051;28;20080;-61
2021/05/03 10:54:22;;;;;;;2.15;0.90;;;15.60;69.50;;;;;;4239552;27;20112;-56
2021/05/03 10:56:39;;;;;;;1.17;0.88;;;15.70;67.00;;;;;;4231678;27;20697;-60
2021/05/03 10:58:52;;;;;;;0.70;0.70;;;15.70;66.30;;;;;;4224369;28;20096;-60
2021/05/03 11:00:59;;;;;;;1.70;0.60;;;15.70;66.90;;;;;;4225291;28;20104;-61
2021/05/03 11:03:00;;;;;;;0.70;0.47;;;15.80;66.90;;;;;;4223624;27;20040;-60
2021/05/03 11:05:18;;;;;;;0.60;0.60;;;15.90;66.90;;;;;;4224992;28;20660;-61
2021/05/03 11:07:19;;;;;;;2.05;0.80;;;15.90;65.10;;;;;;4222249;28;20164;-63
2021/05/03 11:09:36;;;;;;;1.40;0.73;;;15.90;65.30;;;;;;4242036;27;20027;-55
2021/05/03 11:11:46;;;;;;;0.60;0.60;;;15.90;64.70;;;;;;4223901;28;20088;-62